Terminal Aerodrome Forecast
Issued by NWS Mt. Holly, NJ

Home | Current Version | Previous Version | Text Only | Print | Product List | Glossary On
Versions: 1 2 3 4 5 6 7 8 9 10 11 12 13 14 15 16 17 18 19 20 21 22 23 24 25 26 27
922
FTUS41 KPHI 221733
TAFPHL
TAF
KPHL 221733Z 2218/2324 32016G32KT P6SM SCT045
      TEMPO 2218/2220 BKN045
     FM222100 32016G27KT P6SM SKC
     FM230100 33011KT P6SM SKC
     FM230600 32007KT P6SM SKC
     FM231800 29007KT P6SM SKC
     FM232300 26005KT P6SM SCT150=

USA.gov is the U.S. government's official web portal to all federal, state and local government web resources and services.